Will Rogers World Airport
KOKC : now visible

Airfield :











YOU CAN JOIN US ON...

 
LOGIN :

Register | Disclaimer

   EN    FR    IT 

 









Legend :    VFR   Marginal VFR   IFR   Intensive IFR   Very Intensive IFR
Visi :
Ceiling :
>= 8 km
>= 3000ft
5 to 8 km
1000 to 3000 ft
1500m to 5 km
500 to 1000 ft
800 to 1500m
200 to 500 ft
< 800m
< 200 ft
Symbols :   Thunderstorms  Fog  Heavy snow  Heavy precipitations  Wind > 20 kt






- Airport Elevation : 1295 ft
- IATA code : OKC


KOKC - Will Rogers World

CURRENT METAR :
  • 041552Z 02008KT 10SM OVC009 03/01 A3013 RMK AO2 SLP208 T00330011

EXPIRED METARs :
  • 041452Z 01011KT 4SM BR OVC005 02/01 A3015 RMK AO2 DZE49 SLP216 P0000 60000 T00220006 50007
  • 041428Z 36010KT 2SM -DZ BR OVC004 02/01 A3015 RMK AO2 P0000 T00170011
  • 041352Z 02010KT 2SM -DZ BR OVC005 02/01 A3016 RMK AO2 DZB49 SLP219 P0000 T00170006

TAF KOKC
Valid from the 04 at 12:00 until the 05 at 12:00 UTC


041147Z 0412/0512 02013KT P6SM OVC009
FM041500 01009KT P6SM OVC025
FM042100 03005KT P6SM BKN035
FM050000 06005KT P6SM BKN030
FM050600 09004KT P6SM OVC050
FM050800 VRB03KT P6SM OVC025



MET'MAP, your aeronautical weather chart ! - Copyright ORBIFLY December 2007 - Disclaimer

ORBIFLY MET'MAP TEAM :

Programming & Development : Alexandra Zaïnal
Concept & original design : Baudouin d'Aumeries
Assistance for programming : Marc-Olivier Méhu
Technical & hardware support : Manuel Goepfert

Contact : metmap@orbifly.com




SOURCES & CREDITS :

   NOAA       Earth
Advisory